Time;durP1;ratioP1;P1;durP2;ratioP2;P2;SDS_P1;SDS_P2;PMS_P1;PMS_P2;Temp;Humidity;BMP_temperature;BMP_pressure;BME280_temperature;BME280_humidity;BME280_pressure;Samples;Min_cycle;Max_cycle;Signal;HPM_P1;HPM_P2
2022/11/18 00:01:16;;;;;;;;;3.00;2.50;;;;;11.43;78.35;99282.91;5015772;28;45476;-82
2022/11/18 00:03:42;;;;;;;;;2.25;1.25;;;;;11.30;78.62;99258.25;5014668;28;46286;-84
2022/11/18 00:06:16;;;;;;;;;0.25;0.25;;;;;11.47;78.43;99278.53;5016026;28;45339;-84
2022/11/18 00:08:42;;;;;;;;;2.00;1.00;;;;;11.53;78.33;99297.00;5014695;28;45337;-84
2022/11/18 00:11:10;;;;;;;;;1.25;1.00;;;;;11.53;78.33;99303.16;5016145;28;45563;-83
2022/11/18 00:16:23;;;;;;;;;2.00;1.00;;;;;11.50;78.20;99318.91;5015608;28;45493;-85
2022/11/18 00:18:48;;;;;;;;;1.00;1.00;;;;;11.47;78.60;99316.22;5014616;28;45495;-87
2022/11/18 00:21:14;;;;;;;;;1.00;0.00;;;;;11.45;78.36;99314.47;5015966;28;45339;-88
2022/11/18 00:23:39;;;;;;;;;1.00;1.00;;;;;11.44;78.40;99315.34;5015741;28;45765;-87
2022/11/18 00:26:11;;;;;;;;;1.25;1.00;;;;;11.28;78.49;99302.06;5015692;28;45327;-87
2022/11/18 00:28:37;;;;;;;;;1.00;1.00;;;;;11.30;78.44;99305.59;5015911;28;45413;-85
2022/11/18 00:31:09;;;;;;;;;0.50;0.50;;;;;11.40;78.71;99327.59;5015424;28;45589;-87
2022/11/18 00:33:35;;;;;;;;;0.50;0.50;;;;;11.44;78.62;99341.66;5015589;28;46715;-88
2022/11/18 00:36:02;;;;;;;;;0.50;0.50;;;;;11.46;78.45;99348.66;5015531;28;45394;-87
2022/11/18 00:38:28;;;;;;;;;1.00;1.00;;;;;11.47;78.78;99353.06;5015573;28;45253;-88
2022/11/18 00:41:04;;;;;;;;;2.50;1.00;;;;;11.37;78.64;99340.69;5015588;28;45518;-86
2022/11/18 00:43:30;;;;;;;;;1.00;1.00;;;;;11.17;78.63;99308.09;5015526;28;45437;-87
2022/11/18 00:45:56;;;;;;;;;2.50;1.00;;;;;11.44;78.48;99354.81;5015124;28;45932;-87
2022/11/18 00:48:22;;;;;;;;;2.00;2.00;;;;;11.41;78.73;99350.38;5015633;28;45517;-87
2022/11/18 00:50:52;;;;;;;;;1.25;1.00;;;;;11.39;78.79;99362.66;5015416;28;45353;-88
2022/11/18 00:53:19;;;;;;;;;2.00;1.00;;;;;11.37;78.55;99364.38;5015230;28;45331;-87
2022/11/18 00:55:44;;;;;;;;;2.75;2.00;;;;;11.35;78.51;99355.59;5014237;28;45920;-84
2022/11/18 00:58:13;;;;;;;;;1.25;1.25;;;;;11.31;78.47;99370.47;5013593;28;45547;-85
2022/11/18 01:00:40;;;;;;;;;1.00;1.00;;;;;11.33;78.64;99371.38;5013691;28;45509;-85
2022/11/18 01:03:06;;;;;;;;;1.25;1.00;;;;;11.33;78.64;99379.28;5013427;28;46203;-82
2022/11/18 01:05:31;;;;;;;;;1.50;1.50;;;;;11.22;78.92;99354.59;5014814;28;45402;-83
2022/11/18 01:07:56;;;;;;;;;1.25;1.00;;;;;11.17;78.83;99355.41;5014888;28;45350;-85
2022/11/18 01:10:21;;;;;;;;;1.00;1.00;;;;;11.33;78.68;99388.91;5015528;28;45393;-84
2022/11/18 01:15:38;;;;;;;;;1.50;1.50;;;;;11.32;79.12;99387.13;5016564;28;45972;-84
2022/11/18 01:18:04;;;;;;;;;1.00;1.00;;;;;11.31;78.85;99377.47;5018754;28;45403;-84
2022/11/18 01:20:31;;;;;;;;;2.00;1.00;;;;;11.22;79.12;99361.59;5017434;28;45463;-86
2022/11/18 01:22:56;;;;;;;;;0.00;0.00;;;;;11.36;78.85;99384.53;5018666;28;45348;-87
2022/11/18 01:25:21;;;;;;;;;1.00;1.00;;;;;11.41;78.56;99389.84;5018131;28;45435;-88
2022/11/18 01:27:47;;;;;;;;;0.00;0.00;;;;;11.42;78.67;99388.09;5018057;28;45809;-82
2022/11/18 01:30:13;;;;;;;;;1.00;1.00;;;;;11.36;78.83;99400.31;5018568;28;45359;-82
2022/11/18 01:32:38;;;;;;;;;2.00;1.00;;;;;11.28;78.67;99386.22;5017613;28;45812;-82
2022/11/18 01:35:04;;;;;;;;;1.00;1.00;;;;;11.35;78.95;99403.81;5018143;28;45352;-85
2022/11/18 01:37:29;;;;;;;;;0.75;0.75;;;;;11.22;78.97;99380.88;5018334;28;45434;-87
2022/11/18 01:39:54;;;;;;;;;0.25;0.25;;;;;11.32;78.73;99406.41;5018132;28;45219;-87
2022/11/18 01:42:20;;;;;;;;;1.67;1.00;;;;;10.85;78.91;99335.84;5017899;28;50016;-85
2022/11/18 01:44:57;;;;;;;;;1.00;1.00;;;;;11.27;78.95;99420.38;5018101;28;45324;-86
2022/11/18 01:47:26;;;;;;;;;1.00;1.00;;;;;11.22;78.76;99420.34;5016983;28;45228;-82
2022/11/18 01:49:52;;;;;;;;;1.25;1.00;;;;;11.20;78.85;99423.84;5018220;28;45402;-82
2022/11/18 01:52:18;;;;;;;;;0.75;0.00;;;;;11.17;79.41;99422.03;5017945;28;46109;-85
2022/11/18 01:54:51;;;;;;;;;0.00;0.00;;;;;11.17;79.22;99424.66;5018087;28;45290;-82
2022/11/18 01:57:21;;;;;;;;;1.00;1.00;;;;;11.17;79.19;99415.91;5016848;28;45368;-88
2022/11/18 01:59:51;;;;;;;;;0.25;0.00;;;;;11.17;79.07;99423.78;5017863;28;45428;-83
2022/11/18 02:02:17;;;;;;;;;0.75;0.75;;;;;11.16;79.00;99422.03;5017578;28;45364;-83
2022/11/18 02:04:47;;;;;;;;;0.00;0.00;;;;;11.13;79.06;99424.63;5017826;28;45292;-85
2022/11/18 02:07:14;;;;;;;;;1.75;1.00;;;;;11.06;79.36;99418.41;5018075;28;45312;-82
2022/11/18 02:09:39;;;;;;;;;0.00;0.00;;;;;11.08;79.81;99432.44;5017957;28;45573;-84
2022/11/18 02:12:06;;;;;;;;;0.50;0.00;;;;;11.05;79.39;99432.44;5017760;28;45762;-86
2022/11/18 02:14:36;;;;;;;;;0.00;0.00;;;;;10.97;79.17;99420.94;5017778;28;45443;-83
2022/11/18 02:17:35;;;;;;;;;2.00;0.50;;;;;11.04;79.62;99438.56;5017419;28;45347;-83
2022/11/18 02:20:24;;;;;;;;;2.00;1.00;;;;;11.04;79.41;99438.56;5017618;28;45482;-84
2022/11/18 02:22:58;;;;;;;;;1.00;0.50;;;;;11.02;79.41;99441.16;5017494;28;46150;-83
2022/11/18 02:25:30;;;;;;;;;1.00;1.00;;;;;11.01;79.70;99452.53;5017473;28;45347;-86
2022/11/18 02:28:07;;;;;;;;;0.00;0.00;;;;;10.98;79.69;99447.22;5016926;28;45310;-88
2022/11/18 02:30:44;;;;;;;;;0.50;0.50;;;;;10.97;79.73;99452.47;5017724;28;45398;-88
2022/11/18 02:33:16;;;;;;;;;0.25;0.25;;;;;10.92;79.59;99446.28;5017197;28;45949;-82
2022/11/18 02:35:46;;;;;;;;;0.00;0.00;;;;;10.90;79.91;99455.91;5017381;28;45489;-88
2022/11/18 02:38:27;;;;;;;;;0.25;0.25;;;;;10.92;79.82;99456.81;5017497;28;45326;-86
2022/11/18 02:40:58;;;;;;;;;1.00;0.00;;;;;10.82;79.79;99442.66;5016498;28;45460;-85
2022/11/18 02:43:29;;;;;;;;;1.00;1.00;;;;;10.78;79.92;99435.59;5017564;28;45329;-88
2022/11/18 02:46:00;;;;;;;;;0.00;0.00;;;;;10.69;79.99;99431.13;5017035;28;45283;-85
2022/11/18 02:48:29;;;;;;;;;0.00;0.00;;;;;10.83;79.77;99454.94;5017338;28;45384;-88
2022/11/18 02:50:57;;;;;;;;;1.00;1.00;;;;;10.88;80.02;99470.75;5016048;28;45484;-87
2022/11/18 02:53:25;;;;;;;;;1.75;1.00;;;;;10.87;80.22;99472.50;5017119;28;46364;-88
2022/11/18 02:55:53;;;;;;;;;1.00;1.00;;;;;10.87;80.41;99477.78;5017186;28;45871;-87
2022/11/18 02:58:21;;;;;;;;;0.00;0.00;;;;;10.88;80.18;99476.91;5017345;28;45405;-88
2022/11/18 03:00:55;;;;;;;;;1.00;1.00;;;;;10.88;80.26;99490.03;5016787;28;45443;-86
2022/11/18 03:03:28;;;;;;;;;2.00;0.75;;;;;10.88;79.87;99497.06;5016918;28;45347;-89
2022/11/18 03:06:09;;;;;;;;;0.00;0.00;;;;;10.81;79.92;99472.44;5017165;28;45946;-83
2022/11/18 03:08:45;;;;;;;;;0.50;0.00;;;;;10.81;80.11;99489.09;5017235;28;45395;-81
2022/11/18 03:11:17;;;;;;;;;0.25;0.25;;;;;10.71;79.88;99474.06;5016833;28;45295;-87
2022/11/18 03:14:01;;;;;;;;;1.00;1.00;;;;;10.68;80.22;99465.25;5015405;28;48429;-83
2022/11/18 03:16:44;;;;;;;;;1.00;1.00;;;;;10.78;80.18;99496.03;5016205;28;45365;-87
2022/11/18 03:19:24;;;;;;;;;1.00;1.00;;;;;10.73;80.16;99495.09;5016588;28;45330;-86
2022/11/18 03:22:01;;;;;;;;;2.00;0.25;;;;;10.70;80.31;99501.22;5016759;28;45561;-86
2022/11/18 03:24:31;;;;;;;;;0.75;0.75;;;;;10.61;80.46;99495.81;5016559;28;45255;-87
2022/11/18 03:27:11;;;;;;;;;0.25;0.25;;;;;10.54;80.49;99486.06;5016583;28;45439;-84
2022/11/18 03:29:42;;;;;;;;;1.00;1.00;;;;;10.50;80.39;99482.53;5016632;28;45488;-87
2022/11/18 03:32:17;;;;;;;;;0.00;0.00;;;;;10.59;80.42;99500.19;5016456;28;45299;-82
2022/11/18 03:34:51;;;;;;;;;1.00;0.50;;;;;10.57;80.62;99502.75;5016324;28;45569;-83
2022/11/18 03:37:19;;;;;;;;;0.00;0.00;;;;;10.55;80.82;99512.38;5016041;28;45797;-83
2022/11/18 03:39:51;;;;;;;;;0.00;0.00;;;;;10.42;80.75;99484.16;5016517;28;45413;-88
2022/11/18 03:42:24;;;;;;;;;0.00;0.00;;;;;10.56;80.90;99514.16;5016552;28;45338;-82
2022/11/18 03:44:53;;;;;;;;;0.25;0.25;;;;;10.58;80.89;99522.03;5016061;28;45401;-86
2022/11/18 03:47:27;;;;;;;;;0.00;0.00;;;;;10.44;80.82;99507.81;5015961;28;45339;-81
2022/11/18 03:50:17;;;;;;;;;1.00;1.00;;;;;10.31;80.84;99489.25;5016268;28;45322;-81
2022/11/18 03:52:43;;;;;;;;;1.00;0.00;;;;;10.48;80.77;99521.03;5015824;28;45430;-81
2022/11/18 03:55:14;;;;;;;;;0.25;0.25;;;;;10.57;81.15;99531.66;5015985;28;45537;-82
2022/11/18 03:57:50;;;;;;;;;0.00;0.00;;;;;10.46;80.82;99520.13;5016236;28;45697;-81
2022/11/18 04:00:19;;;;;;;;;0.00;0.00;;;;;10.48;80.97;99525.38;5016078;28;45406;-82
2022/11/18 04:02:46;;;;;;;;;1.00;0.75;;;;;10.60;81.15;99543.97;5015805;28;45573;-84
2022/11/18 04:05:13;;;;;;;;;1.00;0.00;;;;;10.61;81.03;99547.50;5015979;28;46063;-82
2022/11/18 04:07:42;;;;;;;;;0.00;0.00;;;;;10.64;80.71;99558.94;5015978;28;45422;-87
2022/11/18 04:10:15;;;;;;;;;0.00;0.00;;;;;10.68;80.77;99562.47;5015804;28;45324;-82
2022/11/18 04:12:47;;;;;;;;;0.75;0.75;;;;;10.68;80.85;99557.22;5015963;28;45565;-83
2022/11/18 04:15:12;;;;;;;;;13.25;13.00;;;;;10.66;80.79;99554.56;5014160;28;47372;-82
2022/11/18 04:17:40;;;;;;;;;3.25;2.50;;;;;10.76;80.60;99574.00;5015627;28;45387;-85
2022/11/18 04:20:06;;;;;;;;;0.75;0.75;;;;;10.62;80.55;99560.63;5015854;28;45469;-81
2022/11/18 04:22:31;;;;;;;;;1.00;1.00;;;;;10.73;80.83;99589.69;5015806;28;45388;-87
2022/11/18 04:24:57;;;;;;;;;85.00;78.25;;;;;10.61;80.67;99558.00;5015350;28;46140;-88
2022/11/18 04:27:22;;;;;;;;;0.00;0.00;;;;;10.73;80.45;99585.31;5015719;28;48187;-81
2022/11/18 04:29:47;;;;;;;;;0.00;0.00;;;;;10.64;80.56;99574.72;5015760;28;45484;-85
2022/11/18 04:32:12;;;;;;;;;0.00;0.00;;;;;10.67;80.66;99584.38;5015553;28;45445;-85
2022/11/18 04:34:38;;;;;;;;;0.00;0.00;;;;;10.73;80.81;99595.84;5015376;28;47099;-86
2022/11/18 04:37:03;;;;;;;;;0.00;0.00;;;;;10.72;80.49;99604.59;5014461;28;47068;-86
2022/11/18 04:39:28;;;;;;;;;0.00;0.00;;;;;10.69;80.53;99599.31;5015837;28;45541;-83
2022/11/18 04:41:56;;;;;;;;;0.00;0.00;;;;;10.54;80.49;99584.19;5015238;28;51355;-88
2022/11/18 04:44:30;;;;;;;;;0.00;0.00;;;;;10.49;80.48;99583.22;5015532;28;46106;-88
2022/11/18 04:46:58;;;;;;;;;0.00;0.00;;;;;10.63;80.34;99611.44;5015252;28;45234;-88
2022/11/18 04:49:24;;;;;;;;;0.00;0.00;;;;;10.61;80.45;99614.06;5015770;28;45498;-89
2022/11/18 04:51:50;;;;;;;;;0.00;0.00;;;;;10.47;80.89;99595.44;5019131;28;45260;-88
2022/11/18 04:54:17;;;;;;;;;0.00;0.00;;;;;10.52;80.21;99601.66;5019024;28;46139;-88
2022/11/18 04:56:43;;;;;;;;;0.00;0.00;;;;;10.56;80.71;99613.97;5019007;28;45535;-88
2022/11/18 04:59:10;;;;;;;;;0.00;0.00;;;;;10.47;80.37;99610.31;5019171;28;45441;-88
2022/11/18 05:01:35;;;;;;;;;0.00;0.00;;;;;10.45;80.52;99606.78;5017381;28;45349;-82
2022/11/18 05:04:02;;;;;;;;;0.00;0.00;;;;;10.49;80.58;99619.09;5018916;28;46240;-89
2022/11/18 05:06:28;;;;;;;;;0.00;0.00;;;;;10.47;80.39;99623.44;5019032;28;45718;-88
2022/11/18 05:08:55;;;;;;;;;0.00;0.00;;;;;10.39;80.61;99611.91;5019078;28;45248;-88
2022/11/18 05:14:05;;;;;;;;;0.00;0.00;;;;;10.46;80.40;99622.56;5018647;28;45512;-82
2022/11/18 05:16:30;;;;;;;;;0.00;0.00;;;;;10.46;80.65;99632.19;5018062;28;45241;-87
2022/11/18 05:18:55;;;;;;;;;0.00;0.00;;;;;10.31;80.83;99606.56;5017413;28;46198;-88
2022/11/18 05:21:21;;;;;;;;;0.00;0.00;;;;;10.40;80.68;99627.72;5018955;28;45290;-85
2022/11/18 05:23:46;;;;;;;;;0.00;0.00;;;;;10.39;80.69;99633.81;5018701;28;45393;-81
2022/11/18 05:26:11;;;;;;;;;0.00;0.00;;;;;10.29;80.66;99624.00;5018464;28;45426;-82
2022/11/18 05:28:37;;;;;;;;;0.00;0.00;;;;;10.26;80.92;99622.22;5016858;28;52797;-84
2022/11/18 05:31:08;;;;;;;;;0.00;0.00;;;;;10.35;80.74;99641.63;5018130;28;45605;-82
2022/11/18 05:33:33;;;;;;;;;0.00;0.00;;;;;10.27;80.51;99631.00;5018183;28;45414;-82
2022/11/18 05:36:05;;;;;;;;;0.00;0.00;;;;;10.32;80.62;99645.97;5018355;28;45469;-82
2022/11/18 05:38:32;;;;;;;;;0.00;0.00;;;;;10.28;80.43;99649.38;5018575;28;45388;-84
2022/11/18 05:40:57;;;;;;;;;0.00;0.00;;;;;10.16;80.66;99641.25;5018297;28;45585;-85
2022/11/18 05:43:23;;;;;;;;;0.00;0.00;;;;;10.17;80.71;99642.16;5018023;28;46037;-81
2022/11/18 05:45:49;;;;;;;;;0.00;0.00;;;;;10.10;80.67;99630.66;5017970;28;45457;-81
2022/11/18 05:48:15;;;;;;;;;0.00;0.00;;;;;10.18;80.66;99650.03;5019675;28;45214;-83
2022/11/18 05:50:40;;;;;;;;;0.00;0.00;;;;;10.13;80.96;99648.19;5018281;28;45467;-82
2022/11/18 05:53:06;;;;;;;;;0.00;0.00;;;;;10.03;80.82;99631.38;5017974;28;45923;-84
2022/11/18 05:55:43;;;;;;;;;0.00;0.00;;;;;10.12;80.97;99660.44;5033612;28;45438;-82
2022/11/18 05:58:08;;;;;;;;;0.00;0.00;;;;;10.03;80.68;99647.13;5018257;28;45244;-82
2022/11/18 06:00:33;;;;;;;;;0.00;0.00;;;;;10.12;80.87;99668.31;5017458;28;45335;-87
2022/11/18 06:03:00;;;;;;;;;0.00;0.00;;;;;10.13;80.88;99669.19;5017705;28;45311;-86
2022/11/18 06:05:25;;;;;;;;;0.00;0.00;;;;;10.11;80.61;99671.81;5016364;28;46006;-83
2022/11/18 06:07:55;;;;;;;;;0.00;0.00;;;;;9.96;80.61;99653.13;5017575;28;45260;-88
2022/11/18 06:10:28;;;;;;;;;0.00;0.00;;;;;10.03;80.83;99684.78;5017716;28;45497;-82
2022/11/18 06:13:01;;;;;;;;;0.00;0.00;;;;;9.91;80.71;99663.53;5016824;28;45409;-86
2022/11/18 06:15:32;;;;;;;;;0.00;0.00;;;;;10.01;80.90;99690.84;5016922;28;45852;-87
2022/11/18 06:18:00;;;;;;;;;0.00;0.00;;;;;9.99;80.88;99698.69;5014907;28;45471;-83
2022/11/18 06:20:27;;;;;;;;;0.00;0.00;;;;;9.93;80.85;99687.19;5017738;28;45538;-88
2022/11/18 06:22:56;;;;;;;;;0.00;0.00;;;;;9.96;81.07;99706.50;5032805;28;47411;-81
2022/11/18 06:25:21;;;;;;;;;0.00;0.00;;;;;9.96;80.91;99717.00;5017774;28;45523;-85
2022/11/18 06:27:50;;;;;;;;;0.00;0.00;;;;;9.95;80.99;99724.84;5017667;28;45367;-84
2022/11/18 06:30:16;;;;;;;;;0.00;0.00;;;;;9.94;81.00;99718.69;5017915;28;45652;-85
2022/11/18 06:32:41;;;;;;;;;0.00;0.00;;;;;9.77;81.23;99692.13;5016126;28;46370;-82
2022/11/18 06:35:07;;;;;;;;;0.00;0.00;;;;;9.93;80.93;99729.19;5009021;28;46500;-80
2022/11/18 06:37:33;;;;;;;;;0.00;0.00;;;;;9.92;81.22;99725.66;5009325;28;45475;-84
2022/11/18 06:39:58;;;;;;;;;0.00;0.00;;;;;9.88;80.93;99731.69;5011981;28;45574;-80
2022/11/18 06:45:10;;;;;;;;;0.00;0.00;;;;;9.89;81.03;99743.97;5002620;28;45552;-80
2022/11/18 06:47:36;;;;;;;;;0.00;0.00;;;;;9.88;81.05;99751.81;5003601;28;45574;-81
2022/11/18 06:50:01;;;;;;;;;3927.25;3927.25;;;;;9.85;80.97;99749.13;5001877;28;45397;-85
2022/11/18 06:52:26;;;;;;;;;0.00;0.00;;;;;9.69;81.02;99737.41;5002090;28;45804;-82
2022/11/18 06:54:52;;;;;;;;;0.00;0.00;;;;;9.79;81.13;99756.00;5014923;28;45430;-83
2022/11/18 06:57:23;;;;;;;;;0.00;0.00;;;;;9.65;81.46;99739.06;5016500;28;45350;-82
2022/11/18 06:59:49;;;;;;;;;0.00;0.00;;;;;9.66;81.27;99748.75;5013550;28;45519;-86
2022/11/18 07:02:17;;;;;;;;;0.00;0.00;;;;;9.72;81.29;99763.72;5016966;28;46723;-81
2022/11/18 07:04:42;;;;;;;;;0.00;0.00;;;;;9.65;81.43;99754.81;5002875;28;45888;-89
2022/11/18 07:07:08;;;;;;;;;0.00;0.00;;;;;9.78;81.34;99776.97;4998362;28;45422;-89
2022/11/18 07:09:35;;;;;;;;;0.00;0.00;;;;;9.74;81.57;99769.88;4997991;28;45443;-88
2022/11/18 07:12:00;;;;;;;;;0.00;0.00;;;;;9.77;81.44;99790.97;4997107;28;45949;-89
2022/11/18 07:14:26;;;;;;;;;0.00;0.00;;;;;9.77;81.58;99797.09;4996319;28;45391;-88
2022/11/18 07:16:51;;;;;;;;;0.00;0.00;;;;;9.80;81.31;99791.91;4996744;28;45355;-87
2022/11/18 07:19:16;;;;;;;;;0.00;0.00;;;;;9.85;81.52;99796.34;4997053;28;45541;-84
2022/11/18 07:21:42;;;;;;;;;0.00;0.00;;;;;9.46;81.73;99734.31;5011514;28;48467;-88
2022/11/18 07:24:11;;;;;;;;;0.00;0.00;;;;;9.90;81.26;99810.47;5016045;28;45574;-90
2022/11/18 07:26:36;;;;;;;;;0.00;0.00;;;;;9.88;81.39;99812.19;5001828;28;45391;-88
2022/11/18 07:29:03;;;;;;;;;0.00;0.00;;;;;9.83;81.41;99807.72;4996170;28;45626;-90
2022/11/18 07:31:28;;;;;;;;;0.00;0.00;;;;;9.83;81.46;99812.97;4997265;28;45652;-89
2022/11/18 07:33:54;;;;;;;;;0.00;0.00;;;;;9.77;81.40;99806.69;5012682;28;45440;-91
2022/11/18 07:36:22;;;;;;;;;0.00;0.00;;;;;9.80;81.48;99810.28;4997852;28;45308;-90
2022/11/18 07:38:48;;;;;;;;;0.00;0.00;;;;;9.81;81.34;99803.28;4998024;28;45241;-89
2022/11/18 07:41:16;;;;;;;;;0.00;0.00;;;;;9.87;81.32;99816.53;4996552;28;45549;-87
2022/11/18 07:43:42;;;;;;;;;0.00;0.00;;;;;9.89;81.32;99816.56;4996918;28;45873;-87
2022/11/18 07:46:19;;;;;;;;;0.00;0.00;;;;;9.92;81.34;99820.16;4996886;28;45297;-91
2022/11/18 07:48:46;;;;;;;;;0.00;0.00;;;;;9.91;81.37;99815.78;4996879;28;45365;-80
2022/11/18 07:51:13;;;;;;;;;0.00;0.00;;;;;9.88;81.17;99797.31;4995565;28;45576;-88
2022/11/18 07:53:39;;;;;;;;;0.00;0.00;;;;;9.99;81.53;99826.41;4996856;28;45741;-88
2022/11/18 07:56:05;;;;;;;;;0.00;0.00;;;;;9.96;81.33;99815.88;4996812;28;45221;-87
2022/11/18 07:58:31;;;;;;;;;0.00;0.00;;;;;9.98;81.55;99822.03;4996443;28;45415;-80
2022/11/18 08:00:57;;;;;;;;;0.00;0.00;;;;;10.02;81.24;99827.38;4995932;28;45532;-87
2022/11/18 08:03:26;;;;;;;;;0.00;0.00;;;;;9.97;81.43;99809.75;4996612;28;45422;-87
2022/11/18 08:05:52;;;;;;;;;0.00;0.00;;;;;10.03;81.47;99821.28;5011742;28;45437;-86
2022/11/18 08:08:17;;;;;;;;;0.00;0.00;;;;;10.12;81.18;99825.84;4996595;28;45331;-86
2022/11/18 08:10:43;;;;;;;;;0.00;0.00;;;;;10.05;81.32;99821.31;5012846;28;46421;-88
2022/11/18 08:13:09;;;;;;;;;0.00;0.00;;;;;10.19;81.38;99837.34;5014689;28;45347;-88
2022/11/18 08:15:39;;;;;;;;;0.00;0.00;;;;;10.24;80.95;99846.25;5013989;28;45453;-86
2022/11/18 08:18:05;;;;;;;;;0.00;0.00;;;;;10.32;81.54;99850.81;5014479;28;45639;-81
2022/11/18 08:20:33;;;;;;;;;0.00;0.00;;;;;10.43;81.19;99858.91;5015940;28;51315;-79
2022/11/18 08:22:58;;;;;;;;;0.00;0.00;;;;;10.38;81.05;99843.91;5015109;28;45455;-82
2022/11/18 08:25:23;;;;;;;;;0.00;0.00;;;;;10.37;80.69;99843.03;5016788;28;45287;-79
2022/11/18 08:27:49;;;;;;;;;0.00;0.00;;;;;10.50;80.44;99855.56;5018870;28;45195;-85
2022/11/18 08:30:14;;;;;;;;;0.00;0.00;;;;;10.51;80.30;99843.31;5019458;28;46329;-82
2022/11/18 08:32:40;;;;;;;;;0.00;0.00;;;;;10.57;80.29;99859.22;5009728;28;45417;-87
2022/11/18 08:35:05;;;;;;;;;0.00;0.00;;;;;10.68;80.08;99878.69;4998792;28;45741;-89
2022/11/18 08:37:31;;;;;;;;;0.00;0.00;;;;;10.67;80.20;99876.94;4999380;28;45462;-86
2022/11/18 08:39:56;;;;;;;;;0.00;0.00;;;;;10.52;79.83;99848.59;5012679;28;46071;-86
2022/11/18 08:42:21;;;;;;;;;0.00;0.00;;;;;10.61;80.11;99866.31;5009349;28;45428;-81
2022/11/18 08:44:48;;;;;;;;;0.00;0.00;;;;;10.62;79.98;99869.81;5014629;28;45316;-81
2022/11/18 08:47:13;;;;;;;;;0.00;0.00;;;;;10.52;80.06;99845.09;5015881;28;45282;-81
2022/11/18 08:49:38;;;;;;;;;0.00;0.00;;;;;10.52;80.12;99850.34;5013722;28;46823;-79
2022/11/18 08:52:04;;;;;;;;;0.00;0.00;;;;;10.59;80.30;99862.78;5016734;28;45437;-79
2022/11/18 08:54:30;;;;;;;;;0.00;0.00;;;;;10.68;80.22;99873.44;5016451;28;45490;-79
2022/11/18 08:56:55;;;;;;;;;0.00;0.00;;;;;10.73;80.21;99879.66;5016455;28;45661;-79
2022/11/18 08:59:21;;;;;;;;;0.00;0.00;;;;;10.68;80.28;99869.94;5018042;28;46071;-81
2022/11/18 09:01:46;;;;;;;;;0.00;0.00;;;;;10.83;80.24;99878.09;5015846;28;45483;-84
2022/11/18 09:04:11;;;;;;;;;0.00;0.00;;;;;10.89;80.07;99874.75;5018529;28;45423;-86
2022/11/18 09:06:39;;;;;;;;;0.00;0.00;;;;;10.94;80.01;99886.22;5018229;28;45485;-81
2022/11/18 09:09:04;;;;;;;;;0.00;0.00;;;;;10.94;79.83;99883.59;5016450;28;45501;-82
2022/11/18 09:11:29;;;;;;;;;0.00;0.00;;;;;10.97;79.48;99888.91;5017530;28;45605;-80
2022/11/18 09:13:57;;;;;;;;;0.00;0.00;;;;;10.99;80.23;99900.34;5032020;28;45375;-80
2022/11/18 09:16:25;;;;;;;;;0.00;0.00;;;;;11.04;79.62;99896.06;5016335;28;45556;-80
2022/11/18 09:18:51;;;;;;;;;0.00;0.00;;;;;10.90;79.92;99866.00;5016383;28;45553;-79
2022/11/18 09:21:18;;;;;;;;;0.00;0.00;;;;;10.98;79.83;99890.66;5018062;28;45472;-80
2022/11/18 09:23:44;;;;;;;;;0.00;0.00;;;;;10.73;79.48;99835.00;5018767;28;45334;-78
2022/11/18 09:26:15;;;;;;;;;0.00;0.00;;;;;11.15;79.56;99919.94;5016712;28;45363;-80
2022/11/18 09:28:41;;;;;;;;;0.00;0.00;;;;;11.10;79.33;99901.44;5005633;28;46003;-78
2022/11/18 09:31:09;;;;;;;;;0.00;0.00;;;;;11.21;79.20;99913.03;4998238;28;45313;-79
2022/11/18 09:33:36;;;;;;;;;0.00;0.00;;;;;11.25;79.23;99909.59;4998735;28;45486;-79
2022/11/18 09:36:02;;;;;;;;;0.00;0.00;;;;;11.21;79.23;99885.84;4998315;28;45425;-79
2022/11/18 09:38:29;;;;;;;;;0.00;0.00;;;;;11.35;79.30;99903.66;4998301;28;46462;-79
2022/11/18 09:41:03;;;;;;;;;0.00;0.00;;;;;11.39;79.47;99909.84;4998353;28;45467;-78
2022/11/18 09:43:49;;;;;;;;;0.00;0.00;;;;;11.45;79.02;99909.97;4998576;28;45390;-79
2022/11/18 09:46:27;;;;;;;;;0.00;0.00;;;;;11.57;79.34;99909.28;4997645;28;45564;-78
2022/11/18 09:49:13;;;;;;;;;0.00;0.00;;;;;11.55;78.99;99892.59;5017049;28;45805;-82
2022/11/18 09:51:50;;;;;;;;;0.00;0.00;;;;;11.64;78.89;99908.53;5009646;28;45649;-79
2022/11/18 09:54:36;;;;;;;;;0.00;0.00;;;;;11.68;78.11;99915.63;5011689;28;45594;-79
2022/11/18 09:57:01;;;;;;;;;0.00;0.00;;;;;11.67;78.47;99913.81;5017143;28;45145;-81
2022/11/18 09:59:30;;;;;;;;;0.00;0.00;;;;;11.74;78.30;99920.09;5016761;28;45447;-79
2022/11/18 10:02:08;;;;;;;;;0.00;0.00;;;;;11.71;78.37;99909.50;5016154;28;45836;-82
2022/11/18 10:04:33;;;;;;;;;0.00;0.00;;;;;11.73;78.05;99913.94;5032120;28;45618;-82
2022/11/18 10:06:59;;;;;;;;;0.00;0.00;;;;;11.83;78.18;99918.53;5016377;28;46797;-82
2022/11/18 10:09:38;;;;;;;;;0.00;0.00;;;;;11.89;78.25;99915.13;5032921;28;47982;-80
2022/11/18 10:12:31;;;;;;;;;0.00;0.00;;;;;11.96;78.09;99918.72;5016391;28;45605;-79
2022/11/18 10:14:59;;;;;;;;;0.00;0.00;;;;;12.00;77.45;99931.06;5015428;28;45584;-79
2022/11/18 10:17:44;;;;;;;;;0.00;0.00;;;;;11.99;77.75;99938.09;5017482;28;45322;-79
2022/11/18 10:20:37;;;;;;;;;0.00;0.00;;;;;12.05;77.75;99940.81;5016056;28;45975;-79
2022/11/18 10:23:13;;;;;;;;;0.00;0.00;;;;;12.17;77.78;99945.41;5017750;28;45819;-79
2022/11/18 10:25:38;;;;;;;;;0.00;0.00;;;;;12.22;77.62;99929.66;5015514;28;45323;-80
2022/11/18 10:28:16;;;;;;;;;0.00;0.00;;;;;12.40;77.70;99951.88;5012709;28;45427;-77
2022/11/18 10:30:42;;;;;;;;;0.00;0.00;;;;;12.45;76.45;99936.13;4997296;28;46463;-78
2022/11/18 10:33:22;;;;;;;;;0.00;0.00;;;;;12.65;77.18;99944.31;4997793;28;45458;-79
2022/11/18 10:35:48;;;;;;;;;0.00;0.00;;;;;12.83;76.54;99938.41;5013835;28;45561;-77
2022/11/18 10:38:13;;;;;;;;;0.00;0.00;;;;;13.01;75.25;99943.91;5033059;28;45468;-79
2022/11/18 10:40:51;;;;;;;;;0.00;0.00;;;;;13.13;75.16;99944.03;5008282;28;45553;-78
2022/11/18 10:43:52;;;;;;;;;0.00;0.00;;;;;13.19;75.51;99940.56;5000407;28;45562;-78
2022/11/18 10:46:24;;;;;;;;;0.00;0.00;;;;;13.14;74.89;99924.69;4972391;28;45534;-78
2022/11/18 10:49:07;;;;;;;;;0.00;0.00;;;;;13.29;74.76;99938.94;5006272;28;45446;-79
2022/11/18 10:52:00;;;;;;;;;0.00;0.00;;;;;13.14;75.01;99915.88;5014178;28;46481;-79
2022/11/18 10:54:28;;;;;;;;;0.00;0.00;;;;;13.21;74.21;99924.78;5014190;28;45542;-79
2022/11/18 10:57:02;;;;;;;;;0.00;0.00;;;;;13.29;74.30;99928.41;5016328;28;45488;-80
2022/11/18 10:59:40;;;;;;;;;0.00;0.00;;;;;13.39;74.74;99938.19;5016594;28;45409;-80
2022/11/18 11:02:24;;;;;;;;;0.00;0.00;;;;;13.47;74.31;99940.91;5013882;28;47547;-79
2022/11/18 11:04:51;;;;;;;;;0.00;0.00;;;;;13.32;73.74;99910.84;5014404;28;45802;-80
2022/11/18 11:07:34;;;;;;;;;0.00;0.00;;;;;13.57;73.68;99948.03;5015921;28;45325;-80
2022/11/18 11:10:05;;;;;;;;;0.00;0.00;;;;;13.65;73.69;99943.72;5015995;28;45451;-79
2022/11/18 11:12:50;;;;;;;;;0.00;0.00;;;;;13.80;73.70;99949.16;5009579;28;45472;-80
2022/11/18 11:15:35;;;;;;;;;0.00;0.00;;;;;13.73;73.24;99920.91;5019811;28;45889;-80
2022/11/18 11:20:55;;;;;;;;;0.00;0.00;;;;;13.82;72.76;99946.50;5017333;28;45437;-80
2022/11/18 11:23:23;;;;;;;;;0.00;0.00;;;;;13.86;72.28;99946.56;5016971;28;46217;-79
2022/11/18 11:26:12;;;;;;;;;0.00;0.00;;;;;13.82;72.31;99946.50;5017352;28;45199;-80
2022/11/18 11:28:49;;;;;;;;;0.00;0.00;;;;;13.78;72.84;99950.88;4996963;28;45553;-80
2022/11/18 11:31:28;;;;;;;;;0.00;0.00;;;;;13.77;72.97;99927.97;5016707;28;45509;-79
2022/11/18 11:34:31;;;;;;;;;0.00;0.00;;;;;13.87;72.56;99952.72;5013739;28;47119;-80
2022/11/18 11:37:08;;;;;;;;;0.00;0.00;;;;;13.89;72.77;99957.16;5014247;28;45836;-80
2022/11/18 11:39:46;;;;;;;;;0.00;0.00;;;;;13.87;71.88;99940.38;5013806;28;45552;-79
2022/11/18 11:42:27;;;;;;;;;0.00;0.00;;;;;13.77;71.70;99940.31;5015939;28;45346;-80
2022/11/18 11:45:25;;;;;;;;;0.00;0.00;;;;;13.77;71.66;99948.22;5017129;28;45345;-80
2022/11/18 11:47:55;;;;;;;;;0.00;0.00;;;;;13.83;72.44;99938.59;5014533;28;46065;-80
2022/11/18 11:50:30;;;;;;;;;0.00;0.00;;;;;13.89;71.99;99936.03;5015383;28;45344;-80
2022/11/18 11:53:14;;;;;;;;;0.00;0.00;;;;;13.98;72.21;99936.94;5016506;28;45449;-80
2022/11/18 11:56:10;;;;;;;;;0.00;0.00;;;;;14.04;71.10;99944.91;5016005;28;45440;-80
2022/11/18 11:59:10;;;;;;;;;0.00;0.00;;;;;13.99;71.14;99946.63;5011819;28;45429;-81
2022/11/18 12:02:17;;;;;;;;;0.00;0.00;;;;;14.04;71.29;99936.97;5006736;28;45569;-81